Time,TemperatureF,DewpointF,PressureIn,WindDirection,WindDirectionDegrees,WindSpeedMPH,WindSpeedGustMPH,Humidity,HourlyPrecipIn,Conditions,Clouds,dailyrainin,SoftwareType,DateUTC
2013-07-12 00:00:00,56.7,43.0,30.45,ENE,66,0.0,0.0,58,0.00,,,-99.99,wx200d/1.3,2013-07-12 07:00:00,
2013-07-12 00:15:00,56.7,43.0,30.45,West,279,0.0,0.0,58,0.00,,,-99.99,wx200d/1.3,2013-07-12 07:15:00,
2013-07-12 00:30:00,56.7,43.0,30.45,WNW,289,0.0,0.0,58,0.00,,,-99.99,wx200d/1.3,2013-07-12 07:30:00,
2013-07-12 00:45:00,56.5,43.0,30.45,WNW,287,0.0,0.0,57,0.00,,,-99.99,wx200d/1.3,2013-07-12 07:45:00,
2013-07-12 01:00:00,56.1,41.0,30.45,West,267,0.0,0.0,57,0.00,,,-99.99,wx200d/1.3,2013-07-12 08:00:00,
2013-07-12 01:15:00,55.6,41.0,30.45,West,278,0.0,0.0,58,0.00,,,-99.99,wx200d/1.3,2013-07-12 08:15:00,
2013-07-12 01:30:00,55.6,41.0,30.45,WNW,302,0.0,2.2,58,0.00,,,-99.99,wx200d/1.3,2013-07-12 08:30:00,
2013-07-12 01:45:00,55.8,41.0,30.45,West,276,0.0,0.0,59,0.00,,,-99.99,wx200d/1.3,2013-07-12 08:45:00,
2013-07-12 02:00:00,55.9,41.0,30.45,NW,307,0.0,0.0,58,0.00,,,-99.99,wx200d/1.3,2013-07-12 09:00:00,
2013-07-12 02:15:00,56.3,43.0,30.45,WNW,289,0.0,0.0,59,0.00,,,-99.99,wx200d/1.3,2013-07-12 09:15:00,
2013-07-12 02:30:00,56.3,43.0,30.42,West,271,0.0,0.0,59,0.00,,,-99.99,wx200d/1.3,2013-07-12 09:30:00,
2013-07-12 02:45:00,56.5,43.0,30.45,NE,56,0.0,0.0,59,0.00,,,-99.99,wx200d/1.3,2013-07-12 09:45:00,
2013-07-12 03:00:00,56.3,43.0,30.45,West,260,0.0,0.0,60,0.00,,,-99.99,wx200d/1.3,2013-07-12 10:00:00,
2013-07-12 03:15:00,56.3,43.0,30.45,WNW,290,0.0,0.0,60,0.00,,,-99.99,wx200d/1.3,2013-07-12 10:15:00,
2013-07-12 03:30:00,56.3,43.0,30.45,East,89,0.0,0.0,60,0.00,,,-99.99,wx200d/1.3,2013-07-12 10:30:00,
2013-07-12 03:45:00,56.3,43.0,30.45,West,264,2.2,0.0,60,0.00,,,-99.99,wx200d/1.3,2013-07-12 10:45:00,
2013-07-12 04:00:00,56.3,45.0,30.45,West,273,0.0,0.0,61,0.00,,,-99.99,wx200d/1.3,2013-07-12 11:00:00,
2013-07-12 04:15:00,56.3,45.0,30.45,NW,314,0.0,0.0,61,0.00,,,-99.99,wx200d/1.3,2013-07-12 11:15:00,
2013-07-12 04:30:00,56.3,45.0,30.45,WSW,239,0.0,0.0,61,0.00,,,-99.99,wx200d/1.3,2013-07-12 11:30:00,
2013-07-12 04:45:00,56.3,45.0,30.45,WSW,245,0.0,0.0,62,0.00,,,-99.99,wx200d/1.3,2013-07-12 11:45:00,
2013-07-12 05:00:00,56.3,45.0,30.42,East,81,0.0,0.0,62,0.00,,,-99.99,wx200d/1.3,2013-07-12 12:00:00,
2013-07-12 05:15:00,56.1,43.0,30.42,ENE,71,0.0,0.0,63,0.00,,,-99.99,wx200d/1.3,2013-07-12 12:15:00,
2013-07-12 05:30:00,56.3,45.0,30.45,ENE,71,0.0,0.0,63,0.00,,,-99.99,wx200d/1.3,2013-07-12 12:30:00,
2013-07-12 05:45:00,56.3,45.0,30.45,WSW,257,0.0,0.0,63,0.00,,,-99.99,wx200d/1.3,2013-07-12 12:45:00,
2013-07-12 06:00:00,56.3,45.0,30.45,NNE,20,0.0,0.0,63,0.00,,,-99.99,wx200d/1.3,2013-07-12 13:00:00,
2013-07-12 06:15:00,56.3,45.0,30.45,North,11,0.0,0.0,63,0.00,,,-99.99,wx200d/1.3,2013-07-12 13:15:00,
2013-07-12 06:30:00,56.7,45.0,30.47,West,261,0.0,0.0,64,0.00,,,-99.99,wx200d/1.3,2013-07-12 13:30:00,
2013-07-12 06:45:00,57.0,45.0,30.45,WSW,247,0.0,0.0,62,0.00,,,-99.99,wx200d/1.3,2013-07-12 13:45:00,
2013-07-12 07:00:00,57.7,43.0,30.45,North,349,0.0,0.0,60,0.00,,,-99.99,wx200d/1.3,2013-07-12 14:00:00,
2013-07-12 07:15:00,58.8,43.0,30.47,East,81,0.0,0.0,56,0.00,,,-99.99,wx200d/1.3,2013-07-12 14:15:00,
2013-07-12 07:30:00,58.8,41.0,30.47,WSW,246,0.0,0.0,52,0.00,,,-99.99,wx200d/1.3,2013-07-12 14:30:00,
2013-07-12 07:45:00,59.2,41.0,30.47,WSW,245,0.0,0.0,50,0.00,,,-99.99,wx200d/1.3,2013-07-12 14:45:00,
2013-07-12 08:00:00,59.7,41.0,30.47,West,279,0.0,0.0,50,0.00,,,-99.99,wx200d/1.3,2013-07-12 15:00:00,
2013-07-12 08:15:00,60.8,39.0,30.47,West,275,0.0,0.0,46,0.00,,,-99.99,wx200d/1.3,2013-07-12 15:15:00,
2013-07-12 08:30:00,63.1,37.0,30.47,ENE,76,0.0,0.0,39,0.00,,,-99.99,wx200d/1.3,2013-07-12 15:30:00,
2013-07-12 08:45:00,62.1,41.0,30.47,ENE,60,0.0,0.0,44,0.00,,,-99.99,wx200d/1.3,2013-07-12 15:45:00,
2013-07-12 09:00:00,61.7,41.0,30.47,East,84,0.0,0.0,44,0.00,,,-99.99,wx200d/1.3,2013-07-12 16:00:00,
2013-07-12 09:15:00,61.5,39.0,30.47,East,83,0.0,0.0,44,0.00,,,-99.99,wx200d/1.3,2013-07-12 16:15:00,
2013-07-12 09:30:00,61.7,41.0,30.47,West,270,0.0,0.0,45,0.00,,,-99.99,wx200d/1.3,2013-07-12 16:30:00,
2013-07-12 09:45:00,62.1,39.0,30.47,ENE,72,0.0,3.6,42,0.00,,,-99.99,wx200d/1.3,2013-07-12 16:45:00,
2013-07-12 10:00:00,63.1,37.0,30.47,ENE,77,0.0,2.7,40,0.00,,,-99.99,wx200d/1.3,2013-07-12 17:00:00,
2013-07-12 10:15:00,65.5,37.0,30.47,West,270,0.0,0.0,35,0.00,,,-99.99,wx200d/1.3,2013-07-12 17:15:00,
2013-07-12 10:30:00,66.9,36.0,30.47,WNW,295,0.0,0.0,33,0.00,,,-99.99,wx200d/1.3,2013-07-12 17:30:00,
2013-07-12 10:45:00,67.1,36.0,30.47,ENE,75,0.0,0.0,30,0.00,,,-99.99,wx200d/1.3,2013-07-12 17:45:00,
2013-07-12 11:00:00,65.3,36.0,30.47,West,281,0.0,3.1,33,0.00,,,-99.99,wx200d/1.3,2013-07-12 18:00:00,
2013-07-12 11:15:00,65.5,36.0,30.47,ESE,119,0.0,0.0,33,0.00,,,-99.99,wx200d/1.3,2013-07-12 18:15:00,
2013-07-12 11:30:00,66.2,34.0,30.47,East,81,2.2,0.0,31,0.00,,,-99.99,wx200d/1.3,2013-07-12 18:30:00,
2013-07-12 11:45:00,66.7,34.0,30.47,NNE,29,0.0,3.6,30,0.00,,,-99.99,wx200d/1.3,2013-07-12 18:45:00,
2013-07-12 12:00:00,67.6,34.0,30.50,East,85,0.0,0.0,28,0.00,,,-99.99,wx200d/1.3,2013-07-12 19:00:00,
2013-07-12 12:30:00,65.8,34.0,30.47,West,272,2.2,2.2,29,0.00,,,-99.99,wx200d/1.3,2013-07-12 19:30:00,
2013-07-12 12:45:00,64.9,34.0,30.47,East,92,2.2,4.0,32,0.00,,,-99.99,wx200d/1.3,2013-07-12 19:45:00,
2013-07-12 13:00:00,64.2,34.0,30.47,WNW,286,0.0,3.6,33,0.00,,,-99.99,wx200d/1.3,2013-07-12 20:00:00,
2013-07-12 13:15:00,64.0,36.0,30.47,East,87,2.2,2.2,34,0.00,,,-99.99,wx200d/1.3,2013-07-12 20:15:00,
2013-07-12 13:30:00,64.2,36.0,30.45,WSW,245,3.6,0.0,34,0.00,,,-99.99,wx200d/1.3,2013-07-12 20:30:00,
2013-07-12 13:45:00,64.2,34.0,30.45,WNW,284,0.0,0.0,33,0.00,,,-99.99,wx200d/1.3,2013-07-12 20:45:00,
2013-07-12 14:00:00,63.5,34.0,30.45,WNW,282,2.2,4.0,33,0.00,,,-99.99,wx200d/1.3,2013-07-12 21:00:00,
2013-07-12 14:15:00,63.5,34.0,30.45,ENE,72,2.2,4.0,33,0.00,,,-99.99,wx200d/1.3,2013-07-12 21:15:00,
2013-07-12 14:30:00,63.3,34.0,30.45,WNW,290,3.6,3.6,33,0.00,,,-99.99,wx200d/1.3,2013-07-12 21:30:00,
2013-07-12 14:45:00,63.0,34.0,30.45,ENE,74,3.6,3.6,34,0.00,,,-99.99,wx200d/1.3,2013-07-12 21:45:00,
2013-07-12 15:00:00,63.0,34.0,30.45,ENE,64,2.2,0.0,34,0.00,,,-99.99,wx200d/1.3,2013-07-12 22:00:00,
2013-07-12 15:30:00,63.3,34.0,30.45,West,273,2.2,3.1,33,0.00,,,-99.99,wx200d/1.3,2013-07-12 22:30:00,
2013-07-12 15:45:00,63.7,34.0,30.45,West,277,0.0,3.6,33,0.00,,,-99.99,wx200d/1.3,2013-07-12 22:45:00,
2013-07-12 16:00:00,64.4,34.0,30.45,SE,145,0.0,2.2,31,0.00,,,-99.99,wx200d/1.3,2013-07-12 23:00:00,
2013-07-12 16:15:00,64.0,34.0,30.42,West,268,3.1,3.1,32,0.00,,,-99.99,wx200d/1.3,2013-07-12 23:15:00,
2013-07-12 16:30:00,64.2,34.0,30.45,ENE,72,0.0,0.0,33,0.00,,,-99.99,wx200d/1.3,2013-07-12 23:30:00,
2013-07-12 16:45:00,64.4,34.0,30.42,East,88,0.0,0.0,31,0.00,,,-99.99,wx200d/1.3,2013-07-12 23:45:00,
2013-07-12 17:00:00,64.8,32.0,30.42,East,79,2.2,3.6,30,0.00,,,-99.99,wx200d/1.3,2013-07-13 00:00:00,
2013-07-12 17:15:00,64.8,32.0,30.42,East,84,4.5,4.5,29,0.00,,,-99.99,wx200d/1.3,2013-07-13 00:15:00,
2013-07-12 17:30:00,65.1,32.0,30.42,WNW,289,0.0,0.0,29,0.00,,,-99.99,wx200d/1.3,2013-07-13 00:30:00,
2013-07-12 17:45:00,65.8,32.0,30.42,East,81,0.0,2.7,28,0.00,,,-99.99,wx200d/1.3,2013-07-13 00:45:00,
2013-07-12 18:00:00,68.2,32.0,30.42,NNW,348,0.0,0.0,26,0.00,,,-99.99,wx200d/1.3,2013-07-13 01:00:00,
2013-07-12 18:15:00,71.1,34.0,30.39,West,274,0.0,2.2,24,0.00,,,-99.99,wx200d/1.3,2013-07-13 01:15:00,
2013-07-12 18:30:00,69.6,32.0,30.42,ENE,73,2.7,3.6,25,0.00,,,-99.99,wx200d/1.3,2013-07-13 01:30:00,
2013-07-12 18:45:00,71.6,32.0,30.42,West,279,0.0,0.0,23,0.00,,,-99.99,wx200d/1.3,2013-07-13 01:45:00,
2013-07-12 19:00:00,69.8,32.0,30.42,ENE,78,0.0,2.2,23,0.00,,,-99.99,wx200d/1.3,2013-07-13 02:00:00,
2013-07-12 19:15:00,67.8,32.0,30.42,WNW,297,0.0,0.0,24,0.00,,,-99.99,wx200d/1.3,2013-07-13 02:15:00,
2013-07-12 19:30:00,66.2,32.0,30.42,ENE,74,0.0,0.0,25,0.00,,,-99.99,wx200d/1.3,2013-07-13 02:30:00,
2013-07-12 19:45:00,60.3,32.0,30.42,East,90,0.0,0.0,34,0.00,,,-99.99,wx200d/1.3,2013-07-13 02:45:00,
2013-07-12 20:00:00,58.1,36.0,30.42,West,266,0.0,0.0,40,0.00,,,-99.99,wx200d/1.3,2013-07-13 03:00:00,
2013-07-12 20:15:00,57.2,36.0,30.42,West,272,0.0,0.0,45,0.00,,,-99.99,wx200d/1.3,2013-07-13 03:15:00,
2013-07-12 20:30:00,56.3,39.0,30.42,SE,126,0.0,0.0,50,0.00,,,-99.99,wx200d/1.3,2013-07-13 03:30:00,
2013-07-12 20:45:00,55.8,39.0,30.42,West,274,0.0,0.0,53,0.00,,,-99.99,wx200d/1.3,2013-07-13 03:45:00,
2013-07-12 21:00:00,55.0,41.0,30.42,West,262,0.0,0.0,59,0.00,,,-99.99,wx200d/1.3,2013-07-13 04:00:00,
2013-07-12 21:15:00,54.5,43.0,30.42,East,101,0.0,0.0,61,0.00,,,-99.99,wx200d/1.3,2013-07-13 04:15:00,
2013-07-12 21:30:00,54.7,43.0,30.42,East,90,0.0,0.0,64,0.00,,,-99.99,wx200d/1.3,2013-07-13 04:30:00,
2013-07-12 21:45:00,54.3,41.0,30.42,East,90,0.0,0.0,64,0.00,,,-99.99,wx200d/1.3,2013-07-13 04:45:00,
2013-07-12 22:00:00,54.5,45.0,30.45,WNW,286,0.0,0.0,66,0.00,,,-99.99,wx200d/1.3,2013-07-13 05:00:00,
2013-07-12 22:15:00,54.3,43.0,30.42,ENE,61,0.0,0.0,67,0.00,,,-99.99,wx200d/1.3,2013-07-13 05:15:00,
2013-07-12 22:30:00,54.3,45.0,30.42,WNW,283,0.0,0.0,69,0.00,,,-99.99,wx200d/1.3,2013-07-13 05:30:00,
2013-07-12 22:45:00,54.3,45.0,30.45,WNW,283,0.0,0.0,69,0.00,,,-99.99,wx200d/1.3,2013-07-13 05:45:00,
2013-07-12 23:00:00,54.0,45.0,30.45,West,279,0.0,0.0,70,0.00,,,-99.99,wx200d/1.3,2013-07-13 06:00:00,
2013-07-12 23:15:00,54.0,45.0,30.45,WSW,258,0.0,0.0,72,0.00,,,-99.99,wx200d/1.3,2013-07-13 06:15:00,
2013-07-12 23:30:00,53.8,45.0,30.45,West,278,0.0,0.0,72,0.00,,,-99.99,wx200d/1.3,2013-07-13 06:30:00,
2013-07-12 23:45:00,53.8,46.0,30.45,West,276,0.0,0.0,74,0.00,,,-99.99,wx200d/1.3,2013-07-13 06:45:00,